Time;durP1;ratioP1;P1;durP2;ratioP2;P2;SDS_P1;SDS_P2;PMS_P1;PMS_P2;Temp;Humidity;BMP_temperature;BMP_pressure;BME280_temperature;BME280_humidity;BME280_pressure;Samples;Min_cycle;Max_cycle;Signal;HPM_P1;HPM_P2
2021/01/06 00:01:05;;;;;;;38.95;12.18;;;;;;;-1.15;72.65;96044.69;5014093;28;20034;-65
2021/01/06 00:03:30;;;;;;;37.70;13.10;;;;;;;-1.04;72.20;96051.41;4985053;28;20955;-64
2021/01/06 00:05:58;;;;;;;34.22;13.82;;;;;;;-1.06;72.30;96052.78;5004531;28;20041;-62
2021/01/06 00:08:25;;;;;;;34.30;13.80;;;;;;;-1.08;72.21;96050.44;5001805;28;20049;-65
2021/01/06 00:10:56;;;;;;;35.63;14.02;;;;;;;-1.01;72.22;96042.72;5009297;28;20540;-62
2021/01/06 00:13:23;;;;;;;36.83;12.43;;;;;;;-1.13;71.23;96052.44;5004392;28;20046;-63
2021/01/06 00:15:48;;;;;;;36.92;13.27;;;;;;;-1.29;71.78;96043.97;5018929;28;20072;-64
2021/01/06 00:18:15;;;;;;;32.50;13.35;;;;;;;-1.37;71.91;96046.28;4994673;28;20037;-63
2021/01/06 00:20:41;;;;;;;36.53;14.00;;;;;;;-1.79;74.06;96052.91;5009334;28;20081;-65
2021/01/06 00:23:07;;;;;;;37.20;14.68;;;;;;;-1.92;75.11;96052.63;4993359;28;20073;-66
2021/01/06 00:25:35;;;;;;;35.20;14.25;;;;;;;-2.00;75.56;96061.41;5004892;28;20069;-65
2021/01/06 00:28:02;;;;;;;41.60;15.00;;;;;;;-2.01;75.62;96056.34;5014012;28;20156;-64
2021/01/06 00:30:28;;;;;;;32.92;14.23;;;;;;;-1.95;75.76;96052.44;5015832;28;20141;-63
2021/01/06 00:32:53;;;;;;;35.70;12.98;;;;;;;-1.92;75.86;96058.00;5009904;28;20411;-64
2021/01/06 00:35:20;;;;;;;36.28;13.93;;;;;;;-1.90;75.79;96062.28;4989778;28;20477;-64
2021/01/06 00:37:46;;;;;;;36.60;13.30;;;;;;;-1.84;75.89;96055.69;5010620;28;20073;-63
2021/01/06 00:40:12;;;;;;;37.08;13.68;;;;;;;-1.84;75.74;96058.38;5008165;28;20069;-63
2021/01/06 00:42:38;;;;;;;38.15;14.85;;;;;;;-1.88;75.86;96060.88;5006773;28;20073;-62
2021/01/06 00:45:07;;;;;;;32.55;13.50;;;;;;;-1.86;75.68;96063.25;5013505;28;20050;-65
2021/01/06 00:47:33;;;;;;;40.08;14.35;;;;;;;-1.75;76.08;96060.06;5015056;28;20061;-63
2021/01/06 00:49:58;;;;;;;34.35;12.85;;;;;;;-1.54;75.03;96054.22;5010387;28;20380;-63
2021/01/06 00:52:24;;;;;;;32.78;13.50;;;;;;;-1.43;74.59;96052.09;5012356;28;20600;-64
2021/01/06 00:54:49;;;;;;;31.10;12.55;;;;;;;-1.26;74.25;96062.16;5016992;28;20057;-63
2021/01/06 00:57:15;;;;;;;36.42;13.80;;;;;;;-1.20;73.88;96056.34;5005437;28;20045;-65
2021/01/06 00:59:40;;;;;;;36.78;13.82;;;;;;;-1.18;73.94;96064.13;5007000;28;20034;-65
2021/01/06 01:02:07;;;;;;;36.17;13.40;;;;;;;-1.24;73.60;96065.31;5008579;28;20053;-61
2021/01/06 01:04:32;;;;;;;36.85;12.95;;;;;;;-1.34;74.41;96061.00;5017887;28;20493;-65
2021/01/06 01:06:57;;;;;;;40.92;15.25;;;;;;;-1.40;74.95;96063.03;5013441;28;20045;-66
2021/01/06 01:09:23;;;;;;;34.47;12.60;;;;;;;-1.39;75.00;96066.50;4995419;28;20046;-66
2021/01/06 01:11:48;;;;;;;36.65;13.90;;;;;;;-1.32;74.63;96064.16;4983515;28;20045;-64
2021/01/06 01:14:14;;;;;;;33.35;12.23;;;;;;;-1.29;74.31;96070.84;4996387;28;20038;-66
2021/01/06 01:16:44;;;;;;;36.83;13.15;;;;;;;-1.26;73.36;96076.41;5011275;28;20069;-65
2021/01/06 01:19:10;;;;;;;39.15;13.98;;;;;;;-1.22;73.22;96072.00;5007590;28;20065;-66
2021/01/06 01:21:36;;;;;;;38.33;13.65;;;;;;;-1.13;72.65;96077.44;5020909;28;20073;-66
2021/01/06 01:24:02;;;;;;;35.00;14.15;;;;;;;-1.19;72.63;96071.38;5019039;28;20100;-66
2021/01/06 01:26:28;;;;;;;33.75;12.70;;;;;;;-1.36;74.31;96071.25;5019891;28;20717;-66
2021/01/06 01:28:54;;;;;;;33.80;13.27;;;;;;;-1.44;74.63;96066.59;5013071;28;20068;-66
2021/01/06 01:31:20;;;;;;;38.13;13.95;;;;;;;-1.33;74.69;96064.47;5007809;28;20478;-66
2021/01/06 01:33:46;;;;;;;36.90;13.90;;;;;;;-1.28;74.76;96067.81;5012873;28;20041;-67
2021/01/06 01:36:12;;;;;;;37.75;14.27;;;;;;;-1.12;74.16;96067.47;4995394;28;20132;-67
2021/01/06 01:38:37;;;;;;;31.55;13.13;;;;;;;-1.20;75.07;96066.31;5005799;28;20128;-66
2021/01/06 01:41:12;;;;;;;33.35;12.88;;;;;;;-1.25;75.52;96064.53;5009054;28;20077;-64
2021/01/06 01:43:38;;;;;;;30.05;12.65;;;;;;;-1.20;75.28;96074.38;5013817;28;20096;-63
2021/01/06 01:46:04;;;;;;;37.15;14.68;;;;;;;-1.26;74.70;96073.72;5000796;28;20099;-65
2021/01/06 01:48:41;;;;;;;34.13;13.25;;;;;;;-1.24;74.71;96066.13;4997582;28;20042;-63
2021/01/06 01:51:38;;;;;;;35.92;13.15;;;;;;;-0.98;73.68;96073.56;4996005;28;20049;-62
2021/01/06 01:54:10;;;;;;;38.38;13.40;;;;;;;-1.02;73.68;96067.22;5001051;28;20128;-67
2021/01/06 01:56:59;;;;;;;29.75;12.38;;;;;;;-1.16;73.88;96067.28;5013178;28;20045;-65
2021/01/06 01:59:36;;;;;;;35.20;13.02;;;;;;;-1.18;74.17;96069.50;4998985;28;20053;-65
2021/01/06 02:02:06;;;;;;;36.05;13.48;;;;;;;-1.24;74.37;96073.38;5010951;28;20041;-65
2021/01/06 02:04:38;;;;;;;32.03;13.10;;;;;;;-1.64;75.58;96079.44;5009904;28;20077;-64
2021/01/06 02:07:13;;;;;;;35.13;13.50;;;;;;;-1.78;76.72;96073.31;5014668;28;20048;-67
2021/01/06 02:09:57;;;;;;;29.30;11.93;;;;;;;-1.70;76.89;96071.78;5003739;28;20113;-65
2021/01/06 02:12:50;;;;;;;37.83;13.90;;;;;;;-1.49;76.08;96072.13;5017630;28;20287;-65
2021/01/06 02:15:25;;;;;;;44.58;17.02;;;;;;;-1.47;75.96;96072.59;5017181;28;20052;-64
2021/01/06 02:17:50;;;;;;;35.92;14.70;;;;;;;-1.51;75.87;96068.91;5019832;28;20466;-64
2021/01/06 02:20:20;;;;;;;33.38;13.35;;;;;;;-1.44;75.86;96071.97;4991350;28;20052;-67
2021/01/06 02:22:46;;;;;;;;;;;;;;;-1.65;75.93;96077.03;5003765;28;20060;-63
2021/01/06 02:25:13;;;;;;;41.10;13.65;;;;;;;-1.78;77.10;96067.94;5003006;28;19955;-64
2021/01/06 02:27:39;;;;;;;39.10;16.13;;;;;;;-1.78;77.17;96065.25;5012494;28;20028;-66
2021/01/06 02:30:07;;;;;;;35.70;13.20;;;;;;;-1.75;76.87;96062.75;5004360;28;20045;-66
2021/01/06 02:32:33;;;;;;;39.45;15.32;;;;;;;-1.85;77.19;96068.34;5017088;28;20041;-64
2021/01/06 02:34:58;;;;;;;37.22;13.88;;;;;;;-1.95;78.29;96063.19;5019878;28;20044;-62
2021/01/06 02:37:24;;;;;;;38.03;14.65;;;;;;;-1.98;78.36;96066.47;5000420;28;20050;-63
2021/01/06 02:39:50;;;;;;;37.25;14.68;;;;;;;-1.95;78.11;96058.59;4996567;28;20056;-63
2021/01/06 02:42:16;;;;;;;33.83;13.82;;;;;;;-1.86;78.35;96065.94;4994344;28;20077;-64
2021/01/06 02:44:45;;;;;;;38.85;14.50;;;;;;;-1.66;77.90;96062.81;5000298;28;20474;-63
2021/01/06 02:47:12;;;;;;;32.63;13.82;;;;;;;-1.49;77.35;96066.75;4993173;28;20129;-64
2021/01/06 02:49:38;;;;;;;39.13;14.93;;;;;;;-1.39;77.05;96055.75;5007988;28;20398;-64
2021/01/06 02:52:15;;;;;;;35.88;13.57;;;;;;;-1.31;76.60;96049.66;5004995;28;20038;-65
2021/01/06 02:54:44;;;;;;;31.20;13.85;;;;;;;-1.26;76.43;96056.78;5019354;28;20045;-63
2021/01/06 02:57:11;;;;;;;30.52;12.38;;;;;;;-1.19;76.18;96060.66;5012827;28;20045;-63
2021/01/06 02:59:41;;;;;;;33.47;13.82;;;;;;;-1.16;76.33;96064.59;5014663;28;20104;-62
2021/01/06 03:02:12;;;;;;;36.03;13.88;;;;;;;-1.19;76.33;96054.44;5006824;28;20045;-64
2021/01/06 03:04:42;;;;;;;36.83;14.40;;;;;;;-1.09;75.91;96056.91;5012874;28;20557;-63
2021/01/06 03:07:10;;;;;;;32.65;12.65;;;;;;;-1.08;75.37;96058.50;5010784;28;20128;-65
2021/01/06 03:09:38;;;;;;;38.08;15.45;;;;;;;-1.12;75.52;96051.34;5000359;28;20861;-63
2021/01/06 03:12:19;;;;;;;35.97;14.57;;;;;;;-1.29;76.34;96057.41;4994392;28;20053;-65
2021/01/06 03:14:45;;;;;;;37.38;14.05;;;;;;;-1.51;77.77;96058.19;4999547;28;20038;-63
2021/01/06 03:17:14;;;;;;;40.95;14.50;;;;;;;-1.58;79.13;96058.63;4988107;28;20124;-65
2021/01/06 03:19:43;;;;;;;37.75;15.68;;;;;;;-1.73;79.52;96057.06;5008355;28;20048;-64
2021/01/06 03:22:11;;;;;;;43.00;14.60;;;;;;;-1.78;79.88;96060.66;5012183;28;20037;-64
2021/01/06 03:24:44;;;;;;;42.60;16.25;;;;;;;-1.92;80.45;96058.00;5018649;28;20126;-65
2021/01/06 03:27:11;;;;;;;41.90;16.73;;;;;;;-2.08;81.86;96062.13;5011080;28;20042;-64
2021/01/06 03:29:39;;;;;;;39.33;15.20;;;;;;;-2.09;82.10;96057.81;5018817;28;20430;-65
2021/01/06 03:32:24;;;;;;;38.22;14.32;;;;;;;-1.93;82.04;96064.47;5013756;28;20037;-66
2021/01/06 03:35:06;;;;;;;40.90;15.68;;;;;;;-1.77;82.23;96059.56;5018833;28;20044;-64
2021/01/06 03:37:39;;;;;;;42.30;14.68;;;;;;;-1.49;81.08;96056.78;5014589;28;20049;-62
2021/01/06 03:40:14;;;;;;;40.05;16.00;;;;;;;-1.41;80.57;96063.31;5009777;28;20040;-63
2021/01/06 03:42:42;;;;;;;43.08;15.52;;;;;;;-1.39;81.34;96063.81;4999575;28;20045;-64
2021/01/06 03:45:14;;;;;;;41.65;16.48;;;;;;;-1.72;83.32;96064.03;5003096;28;20497;-63
2021/01/06 03:47:43;;;;;;;41.88;16.50;;;;;;;-2.16;85.77;96047.53;4998925;28;20049;-63
2021/01/06 03:50:30;;;;;;;49.92;16.90;;;;;;;-2.19;86.46;96053.47;4994106;28;20130;-64
2021/01/06 03:53:38;;;;;;;50.30;17.85;;;;;;;-2.26;86.98;96060.34;4992188;28;20137;-63
2021/01/06 03:56:25;;;;;;;48.67;18.25;;;;;;;-2.43;88.36;96058.25;4979434;28;20046;-66
2021/01/06 03:59:12;;;;;;;56.40;19.08;;;;;;;-2.46;88.40;96056.97;5001047;28;20060;-64
2021/01/06 04:01:50;;;;;;;53.17;17.50;;;;;;;-2.59;89.39;96055.06;5006720;28;20042;-64
2021/01/06 04:04:29;;;;;;;57.88;19.98;;;;;;;-2.48;89.78;96061.03;4995511;28;20693;-65
2021/01/06 04:06:56;;;;;;;;;;;;;;;-2.64;89.53;96053.31;4998060;28;20140;-65
2021/01/06 04:09:30;;;;;;;56.25;19.30;;;;;;;-2.48;89.47;96055.66;4992179;28;19917;-64
2021/01/06 04:12:06;;;;;;;55.35;19.00;;;;;;;-2.26;88.86;96050.41;5009891;28;20048;-64
2021/01/06 04:14:32;;;;;;;52.85;18.85;;;;;;;-1.92;86.87;96052.63;5002247;28;20120;-63
2021/01/06 04:17:27;;;;;;;52.30;19.25;;;;;;;-1.91;86.56;96050.75;5010692;28;20524;-64
2021/01/06 04:20:00;;;;;;;54.47;18.77;;;;;;;-1.81;87.13;96055.88;4977092;28;20045;-64
2021/01/06 04:22:43;;;;;;;50.33;18.77;;;;;;;-1.80;86.36;96054.81;5011983;28;20092;-64
2021/01/06 04:25:14;;;;;;;48.72;16.83;;;;;;;-1.82;86.74;96048.13;5012876;28;20414;-62
2021/01/06 04:27:41;;;;;;;50.90;19.15;;;;;;;-1.71;86.36;96054.06;5015290;28;20111;-64
2021/01/06 04:30:37;;;;;;;48.35;19.05;;;;;;;-1.74;86.37;96050.13;5006539;28;20050;-64
2021/01/06 04:33:16;;;;;;;49.53;18.88;;;;;;;-1.70;86.67;96045.72;5010256;28;20037;-65
2021/01/06 04:35:42;;;;;;;57.40;19.05;;;;;;;-1.67;87.06;96050.50;5033268;28;20046;-65
2021/01/06 04:38:07;;;;;;;51.83;18.80;;;;;;;-1.67;87.83;96053.16;5020331;28;20602;-65
2021/01/06 04:40:40;;;;;;;52.55;18.67;;;;;;;-1.65;87.93;96056.34;5011023;28;20667;-62
2021/01/06 04:43:12;;;;;;;53.42;18.75;;;;;;;-1.68;87.72;96051.56;5008020;28;20068;-66
2021/01/06 04:45:43;;;;;;;51.10;18.98;;;;;;;-1.78;87.75;96055.28;4992514;28;20072;-63
2021/01/06 04:48:19;;;;;;;48.58;18.98;;;;;;;-1.82;87.92;96051.63;5017554;28;20041;-64
2021/01/06 04:51:04;;;;;;;46.58;16.25;;;;;;;-1.86;87.79;96053.31;5013591;28;20514;-63
2021/01/06 04:54:20;;;;;;;50.45;17.33;;;;;;;-1.75;87.20;96060.06;5015885;28;20064;-63
2021/01/06 04:56:46;;;;;;;49.97;18.83;;;;;;;-1.99;87.43;96049.56;4936643;28;20049;-63
2021/01/06 04:59:51;;;;;;;52.10;20.40;;;;;;;-2.55;90.25;96059.56;5010899;28;20042;-64
2021/01/06 05:03:09;;;;;;;52.17;18.75;;;;;;;-2.63;92.08;96054.09;5002650;28;20535;-64
2021/01/06 05:05:47;;;;;;;61.67;21.17;;;;;;;-2.76;92.07;96051.09;4998629;28;20199;-61
2021/01/06 05:08:35;;;;;;;68.20;20.98;;;;;;;-2.81;92.79;96061.13;5011393;28;20536;-64
2021/01/06 05:11:09;;;;;;;73.65;24.45;;;;;;;-2.86;93.74;96058.53;5020652;28;20099;-62
2021/01/06 05:13:50;;;;;;;69.15;21.38;;;;;;;-2.89;94.13;96052.69;5020081;28;20103;-63
2021/01/06 05:16:17;;;;;;;66.57;21.42;;;;;;;-2.92;94.16;96066.69;5009084;28;20045;-63
2021/01/06 05:18:44;;;;;;;71.43;21.48;;;;;;;-2.81;94.49;96059.25;5006542;28;20053;-63
2021/01/06 05:21:16;;;;;;;78.97;22.63;;;;;;;-2.91;94.53;96057.53;4996944;28;20045;-64
2021/01/06 05:23:43;;;;;;;75.78;23.25;;;;;;;-2.90;94.90;96055.66;5006143;28;20436;-64
2021/01/06 05:26:09;;;;;;;80.60;23.60;;;;;;;-2.66;94.77;96065.44;5008887;28;20402;-66
2021/01/06 05:28:35;;;;;;;73.65;22.95;;;;;;;-2.67;93.87;96061.94;5015881;28;20048;-64
2021/01/06 05:31:00;;;;;;;74.05;21.65;;;;;;;-2.61;94.04;96070.66;5017442;28;20091;-63
2021/01/06 05:33:40;;;;;;;69.05;22.35;;;;;;;-2.68;93.70;96065.72;5002682;28;20680;-63
2021/01/06 05:36:06;;;;;;;67.90;22.63;;;;;;;-2.75;93.44;96070.69;4986585;28;20401;-65
2021/01/06 05:38:32;;;;;;;68.03;20.45;;;;;;;-2.84;93.94;96067.88;5015329;28;20049;-64
2021/01/06 05:40:58;;;;;;;64.93;21.80;;;;;;;-2.84;94.18;96067.09;4998977;28;20048;-62
2021/01/06 05:43:29;;;;;;;71.55;22.98;;;;;;;-2.71;94.56;96079.72;5011285;28;20611;-64
2021/01/06 05:46:02;;;;;;;67.95;21.35;;;;;;;-2.40;93.72;96079.91;5014367;28;20447;-64
2021/01/06 05:48:35;;;;;;;59.80;20.52;;;;;;;-2.44;93.25;96073.56;5022540;28;20053;-64
2021/01/06 05:51:18;;;;;;;56.22;19.60;;;;;;;-2.28;92.96;96076.75;5013460;28;20050;-64
2021/01/06 05:53:57;;;;;;;64.47;21.10;;;;;;;-2.13;92.57;96072.94;5013018;28;20045;-63
2021/01/06 05:56:29;;;;;;;62.90;19.60;;;;;;;-2.02;92.58;96074.31;5012531;28;20525;-65
2021/01/06 05:59:02;;;;;;;54.00;19.35;;;;;;;-1.95;92.19;96076.59;5007179;28;20407;-65
2021/01/06 06:01:56;;;;;;;55.42;20.05;;;;;;;-2.28;91.77;96079.44;5008930;28;20045;-65
2021/01/06 06:04:37;;;;;;;55.30;19.27;;;;;;;-2.43;92.13;96083.22;5001659;28;22283;-65
2021/01/06 06:07:20;;;;;;;57.25;19.42;;;;;;;-2.41;92.73;96083.69;5013391;28;20072;-64
2021/01/06 06:10:02;;;;;;;56.10;19.45;;;;;;;-2.15;92.53;96081.28;5017606;28;20064;-61
2021/01/06 06:12:41;;;;;;;58.55;20.05;;;;;;;-1.99;92.51;96079.09;4989564;28;20049;-64
2021/01/06 06:15:19;;;;;;;60.55;20.20;;;;;;;-2.19;92.11;96077.63;5012409;28;20051;-66
2021/01/06 06:17:57;;;;;;;48.42;18.77;;;;;;;-2.44;92.36;96084.28;5009874;28;20045;-64
2021/01/06 06:20:45;;;;;;;54.22;19.58;;;;;;;-2.56;93.44;96084.78;5012137;28;20061;-64
2021/01/06 06:23:48;;;;;;;55.28;18.67;;;;;;;-2.73;93.91;96076.53;4992199;28;20076;-65
2021/01/06 06:26:18;;;;;;;57.92;18.40;;;;;;;-2.77;94.54;96080.91;5006381;28;20502;-64
2021/01/06 06:29:00;;;;;;;56.85;18.58;;;;;;;-2.73;94.86;96081.91;5010287;28;20049;-64
2021/01/06 06:31:33;;;;;;;57.08;18.48;;;;;;;-2.59;95.12;96081.88;5003053;28;20152;-63
2021/01/06 06:34:05;;;;;;;71.55;22.48;;;;;;;-2.25;96.39;96086.06;5010829;28;20045;-62
2021/01/06 06:36:33;;;;;;;68.63;21.05;;;;;;;-2.18;95.59;96089.16;5006425;28;20048;-64
2021/01/06 06:39:12;;;;;;;65.82;21.35;;;;;;;-2.12;95.28;96093.34;5016753;28;20401;-64
2021/01/06 06:41:40;;;;;;;61.05;19.00;;;;;;;-2.20;94.48;96096.69;4995974;28;20452;-64
2021/01/06 06:44:26;;;;;;;56.70;20.65;;;;;;;-2.14;93.84;96093.63;5003880;28;20140;-65
2021/01/06 06:47:11;;;;;;;63.45;20.20;;;;;;;-2.05;94.07;96104.47;5013067;28;20095;-63
2021/01/06 06:50:13;;;;;;;56.70;19.35;;;;;;;-1.97;93.95;96111.00;5016440;28;20592;-63
2021/01/06 06:53:23;;;;;;;55.20;18.20;;;;;;;-1.78;93.67;96109.00;5004120;28;20703;-63
2021/01/06 06:56:07;;;;;;;53.30;19.52;;;;;;;-1.70;92.76;96110.16;4997656;28;20037;-63
2021/01/06 06:58:47;;;;;;;56.42;20.00;;;;;;;-1.58;91.48;96109.66;5000017;28;20042;-63
2021/01/06 07:01:15;;;;;;;51.35;18.52;;;;;;;-1.59;90.91;96108.03;5005279;28;20049;-64
2021/01/06 07:03:52;;;;;;;50.38;18.10;;;;;;;-1.46;90.38;96111.78;5007475;28;20045;-64
2021/01/06 07:06:17;;;;;;;47.35;17.05;;;;;;;-1.42;89.97;96113.56;5011512;28;20049;-64
2021/01/06 07:08:49;;;;;;;55.60;18.92;;;;;;;-1.44;89.17;96110.41;5013256;28;20048;-62
2021/01/06 07:11:24;;;;;;;50.13;17.85;;;;;;;-1.37;89.01;96116.16;5010949;28;20124;-64
2021/01/06 07:14:17;;;;;;;47.03;17.88;;;;;;;-1.32;88.47;96117.13;5017125;28;20048;-64
2021/01/06 07:17:04;;;;;;;52.60;18.02;;;;;;;-1.31;88.88;96124.88;5014649;28;20069;-64
2021/01/06 07:19:34;;;;;;;43.55;17.20;;;;;;;-1.32;89.19;96130.56;4977749;28;20864;-63
2021/01/06 07:22:19;;;;;;;43.17;17.33;;;;;;;-1.29;89.34;96133.44;4989617;28;20120;-64
2021/01/06 07:25:20;;;;;;;46.88;16.85;;;;;;;-1.25;88.95;96134.41;5012049;28;20049;-64
2021/01/06 07:27:56;;;;;;;44.00;16.65;;;;;;;-1.18;89.10;96132.09;5005800;28;20084;-64
2021/01/06 07:30:34;;;;;;;47.78;17.52;;;;;;;-1.16;88.91;96142.53;5002727;28;20043;-63
2021/01/06 07:33:08;;;;;;;43.95;17.40;;;;;;;-1.12;88.49;96142.72;5024393;28;20049;-65
2021/01/06 07:35:34;;;;;;;45.50;16.80;;;;;;;-1.21;89.38;96142.66;4995052;28;20544;-64
2021/01/06 07:38:06;;;;;;;48.22;18.02;;;;;;;-1.14;89.19;96150.28;5015185;28;20042;-64
2021/01/06 07:40:43;;;;;;;43.40;15.77;;;;;;;-1.10;88.45;96152.06;5011069;28;20124;-64
2021/01/06 07:43:16;;;;;;;41.97;16.52;;;;;;;-1.07;88.22;96156.03;5011625;28;20045;-64
2021/01/06 07:45:45;;;;;;;43.92;16.35;;;;;;;-1.27;88.66;96154.63;5016292;28;20375;-64
2021/01/06 07:48:16;;;;;;;39.63;16.90;;;;;;;-1.16;88.56;96148.69;5008045;28;20790;-64
2021/01/06 07:51:17;;;;;;;45.33;15.93;;;;;;;-1.14;89.05;96156.47;5012665;28;20095;-64
2021/01/06 07:53:58;;;;;;;43.25;15.77;;;;;;;-1.35;89.50;96156.16;5006467;28;20077;-64
2021/01/06 07:56:33;;;;;;;36.15;15.18;;;;;;;-1.25;89.16;96155.91;4998248;28;20979;-66
2021/01/06 07:59:00;;;;;;;43.53;16.45;;;;;;;-1.29;89.48;96154.91;5015828;28;20541;-65
2021/01/06 08:01:50;;;;;;;41.25;16.55;;;;;;;-1.19;88.95;96164.63;4998478;28;20914;-66
2021/01/06 08:04:21;;;;;;;45.00;16.48;;;;;;;-1.14;88.89;96163.72;5013310;28;20046;-66
2021/01/06 08:06:49;;;;;;;41.47;16.08;;;;;;;-1.16;89.37;96167.50;5017627;28;20053;-63
2021/01/06 08:09:37;;;;;;;41.13;15.95;;;;;;;-1.24;89.45;96165.56;5006918;28;20041;-66
2021/01/06 08:12:11;;;;;;;47.65;17.45;;;;;;;-1.35;90.21;96167.69;5006957;28;20048;-66
2021/01/06 08:14:37;;;;;;;43.63;17.02;;;;;;;-1.31;89.91;96172.44;5009197;28;20064;-65
2021/01/06 08:17:15;;;;;;;43.00;17.20;;;;;;;-1.23;89.58;96166.34;5013343;28;20475;-66
2021/01/06 08:20:02;;;;;;;51.28;18.02;;;;;;;-1.19;89.85;96172.69;4998052;28;20057;-64
2021/01/06 08:22:40;;;;;;;43.60;16.55;;;;;;;-1.14;89.32;96169.91;5002990;28;20045;-65
2021/01/06 08:25:14;;;;;;;41.92;15.15;;;;;;;-1.18;89.63;96175.06;5000137;28;20049;-66
2021/01/06 08:27:39;;;;;;;44.53;16.15;;;;;;;-0.99;88.58;96174.94;5013331;28;20049;-65
2021/01/06 08:30:18;;;;;;;45.15;16.63;;;;;;;-0.94;88.70;96179.38;5005942;28;20046;-66
2021/01/06 08:32:45;;;;;;;40.97;16.83;;;;;;;-0.84;87.60;96176.44;5016162;28;20046;-64
2021/01/06 08:35:18;;;;;;;42.47;15.07;;;;;;;-0.83;87.18;96185.31;5011684;28;20095;-64
2021/01/06 08:37:45;;;;;;;46.47;17.05;;;;;;;-0.74;87.20;96185.38;5009321;28;20045;-64
2021/01/06 08:40:36;;;;;;;41.30;15.35;;;;;;;-0.64;87.06;96187.81;5000417;28;20494;-64
2021/01/06 08:43:11;;;;;;;53.53;20.50;;;;;;;-0.74;87.42;96190.75;5011385;28;20089;-65
2021/01/06 08:45:41;;;;;;;49.40;20.60;;;;;;;-0.97;87.99;96188.84;5008729;28;20060;-63
2021/01/06 08:48:29;;;;;;;46.67;17.88;;;;;;;-0.97;88.63;96201.50;5010888;28;20099;-64
2021/01/06 08:51:05;;;;;;;50.78;18.10;;;;;;;-0.78;88.77;96198.63;5002156;28;20046;-65
2021/01/06 08:53:34;;;;;;;46.90;17.67;;;;;;;-0.73;87.85;96192.34;4996666;28;20269;-63
2021/01/06 08:56:03;;;;;;;54.55;20.90;;;;;;;-0.66;87.66;96198.88;5007037;28;20046;-66
2021/01/06 08:58:50;;;;;;;58.60;23.20;;;;;;;-0.62;87.04;96202.53;5005256;28;20049;-65
2021/01/06 09:01:41;;;;;;;64.45;22.80;;;;;;;-0.57;87.43;96193.56;5010155;28;20303;-63
2021/01/06 09:04:39;;;;;;;62.63;19.95;;;;;;;-0.34;87.30;96198.91;5001586;28;20042;-65
2021/01/06 09:07:26;;;;;;;51.05;19.05;;;;;;;-0.41;86.92;96200.16;4998764;28;20045;-64
2021/01/06 09:10:13;;;;;;;54.55;21.15;;;;;;;-0.45;86.60;96201.88;5006798;28;20461;-66
2021/01/06 09:12:38;;;;;;;53.80;20.55;;;;;;;-0.48;86.42;96204.38;4996833;28;20501;-66
2021/01/06 09:15:12;;;;;;;47.75;18.63;;;;;;;-0.25;86.56;96200.56;4997083;28;20118;-66
2021/01/06 09:17:52;;;;;;;51.47;18.63;;;;;;;-0.03;85.31;96205.09;5013778;28;20108;-66
2021/01/06 09:20:30;;;;;;;39.00;16.45;;;;;;;-0.14;84.91;96211.84;5000455;28;20144;-63
2021/01/06 09:22:56;;;;;;;37.90;16.52;;;;;;;-0.25;85.84;96216.69;5018079;28;20168;-64
2021/01/06 09:25:26;;;;;;;50.50;18.67;;;;;;;-0.40;85.23;96223.28;5008907;28;20054;-64
2021/01/06 09:27:56;;;;;;;41.30;16.10;;;;;;;-0.13;84.40;96218.81;4996175;28;20398;-66
2021/01/06 09:30:27;;;;;;;44.83;18.15;;;;;;;-0.42;85.40;96228.13;5012688;28;20916;-63
2021/01/06 09:32:56;;;;;;;54.35;19.45;;;;;;;-0.52;86.30;96225.72;5012612;28;20553;-66
2021/01/06 09:35:27;;;;;;;61.42;21.88;;;;;;;-0.51;86.67;96229.97;4984132;28;22280;-66
2021/01/06 09:38:01;;;;;;;52.03;19.60;;;;;;;-0.29;86.23;96225.69;5020486;28;20042;-66
2021/01/06 09:40:30;;;;;;;43.15;17.75;;;;;;;-0.59;87.06;96234.22;5006578;28;20045;-66
2021/01/06 09:43:01;;;;;;;38.85;16.65;;;;;;;-0.54;87.35;96233.31;5011941;28;20037;-67
2021/01/06 09:45:28;;;;;;;50.95;19.40;;;;;;;-0.79;87.50;96232.00;5010572;28;20034;-67
2021/01/06 09:47:59;;;;;;;42.67;18.30;;;;;;;-0.94;88.69;96235.03;5015603;28;20041;-67
2021/01/06 09:50:36;;;;;;;54.95;20.23;;;;;;;-0.88;88.60;96240.00;5004228;28;20045;-67
2021/01/06 09:53:06;;;;;;;54.15;22.85;;;;;;;-0.60;87.87;96240.69;5016647;28;20045;-67
2021/01/06 09:55:33;;;;;;;49.55;20.92;;;;;;;-0.51;87.02;96238.06;5014009;28;20053;-67
2021/01/06 09:57:59;;;;;;;44.97;17.48;;;;;;;-0.40;86.88;96241.28;5009124;28;20045;-67
2021/01/06 10:00:30;;;;;;;47.42;19.15;;;;;;;-0.33;86.88;96240.88;5007899;28;20049;-67
2021/01/06 10:02:56;;;;;;;45.30;17.52;;;;;;;-0.61;87.05;96246.38;5017256;28;20468;-67
2021/01/06 10:05:27;;;;;;;44.00;16.55;;;;;;;-0.61;87.54;96241.78;5006281;28;21480;-68
2021/01/06 10:08:01;;;;;;;40.58;16.83;;;;;;;-0.48;87.80;96248.22;5020730;28;20048;-67
2021/01/06 10:10:30;;;;;;;42.55;17.30;;;;;;;-0.48;87.32;96237.44;5003046;28;20077;-66
2021/01/06 10:13:23;;;;;;;38.33;14.50;;;;;;;-0.45;88.08;96244.09;5018128;28;20045;-66
2021/01/06 10:16:04;;;;;;;48.78;19.08;;;;;;;-0.54;88.33;96237.88;5013477;28;20117;-66
2021/01/06 10:18:39;;;;;;;42.95;18.80;;;;;;;-0.39;87.75;96242.91;5014953;28;20029;-67
2021/01/06 10:21:21;;;;;;;43.80;17.92;;;;;;;-0.34;87.51;96229.31;4993231;28;20041;-66
2021/01/06 10:23:54;;;;;;;42.63;17.67;;;;;;;-0.15;86.64;96231.78;5011554;28;20517;-66
2021/01/06 10:26:41;;;;;;;44.25;18.15;;;;;;;0.08;85.23;96231.75;5010489;28;20498;-66
2021/01/06 10:29:15;;;;;;;41.67;16.40;;;;;;;-0.02;85.68;96224.72;5004061;28;20034;-67
2021/01/06 10:32:01;;;;;;;40.08;16.75;;;;;;;0.00;85.32;96238.69;5009412;28;20072;-67
2021/01/06 10:34:34;;;;;;;40.45;17.08;;;;;;;0.13;85.35;96235.09;5010654;28;20049;-66
2021/01/06 10:37:15;;;;;;;38.33;15.85;;;;;;;0.21;84.45;96235.44;5012408;28;20049;-67
2021/01/06 10:39:46;;;;;;;44.42;15.02;;;;;;;0.16;83.72;96231.78;5008508;28;20042;-66
2021/01/06 10:42:21;;;;;;;40.25;17.70;;;;;;;0.03;85.06;96229.19;4998510;28;20667;-67
2021/01/06 10:44:52;;;;;;;40.65;16.58;;;;;;;-0.28;85.92;96221.91;5008987;28;20513;-65
2021/01/06 10:47:30;;;;;;;41.95;17.25;;;;;;;0.02;85.29;96220.31;5003864;28;20073;-66
2021/01/06 10:49:57;;;;;;;52.33;20.10;;;;;;;0.22;84.16;96223.53;5011767;28;20131;-65
2021/01/06 10:52:28;;;;;;;43.55;17.48;;;;;;;0.04;84.47;96220.00;5002278;28;20057;-67
2021/01/06 10:55:05;;;;;;;43.00;17.38;;;;;;;0.14;84.22;96222.41;5010773;28;20045;-64
2021/01/06 10:57:45;;;;;;;39.75;16.92;;;;;;;0.33;83.51;96216.78;5011188;28;20033;-65
2021/01/06 11:00:21;;;;;;;41.75;17.85;;;;;;;0.07;84.06;96222.84;5013040;28;20072;-65
2021/01/06 11:03:34;;;;;;;55.05;21.52;;;;;;;0.20;84.62;96215.81;4998655;28;20049;-68
2021/01/06 11:06:22;;;;;;;47.75;18.92;;;;;;;0.19;85.45;96214.19;4914962;29;20051;-66
2021/01/06 11:09:03;;;;;;;43.75;18.58;;;;;;;0.36;84.71;96208.06;5017828;28;20128;-65
2021/01/06 11:11:46;;;;;;;49.63;17.70;;;;;;;0.92;81.78;96202.97;5009205;28;20095;-65
2021/01/06 11:14:14;;;;;;;44.30;16.90;;;;;;;1.05;81.27;96203.94;5004927;28;20065;-65
2021/01/06 11:16:53;;;;;;;46.50;19.75;;;;;;;0.74;82.41;96196.75;4997244;28;20044;-65
2021/01/06 11:19:37;;;;;;;41.85;18.55;;;;;;;0.69;82.42;96200.41;5006953;28;20370;-65
2021/01/06 11:22:18;;;;;;;43.10;16.25;;;;;;;0.73;81.58;96204.03;5004236;28;20034;-66
2021/01/06 11:24:53;;;;;;;42.88;17.55;;;;;;;0.78;82.58;96195.00;5007980;28;20069;-66
2021/01/06 11:27:37;;;;;;;41.67;16.17;;;;;;;1.09;81.33;96196.78;5010778;28;20067;-65
2021/01/06 11:30:19;;;;;;;48.15;18.00;;;;;;;0.44;83.76;96195.75;5016474;28;20397;-66
2021/01/06 11:32:45;;;;;;;45.13;18.52;;;;;;;0.60;84.09;96190.72;5006157;28;20046;-65
2021/01/06 11:35:19;;;;;;;45.10;17.77;;;;;;;0.76;83.28;96195.31;5021239;28;20037;-66
2021/01/06 11:37:46;;;;;;;41.05;15.98;;;;;;;1.05;81.34;96198.53;5016532;28;20073;-65
2021/01/06 11:40:26;;;;;;;44.63;17.00;;;;;;;0.54;83.36;96185.47;5014155;28;20382;-65
2021/01/06 11:43:06;;;;;;;40.92;15.05;;;;;;;0.35;84.25;96185.72;5004666;28;20049;-66
2021/01/06 11:45:58;;;;;;;44.88;17.38;;;;;;;0.25;84.89;96191.41;5010381;28;20103;-66
2021/01/06 11:48:32;;;;;;;44.92;17.45;;;;;;;0.11;85.32;96191.53;4978601;28;20496;-64
2021/01/06 11:51:24;;;;;;;41.40;16.83;;;;;;;-0.01;85.27;96189.41;5011405;28;20042;-64
2021/01/06 11:54:24;;;;;;;55.53;20.33;;;;;;;-0.10;86.33;96190.50;5011088;28;20095;-65